createdAt,value
2016-08-22T00:00:17.717Z,15.64
2016-08-22T00:01:17.716Z,15.62
2016-08-22T00:02:17.719Z,15.62
2016-08-22T00:03:17.730Z,15.58
2016-08-22T00:04:17.722Z,15.65
2016-08-22T00:05:17.723Z,15.62
2016-08-22T00:06:17.724Z,15.61
2016-08-22T00:07:17.719Z,15.55
2016-08-22T00:08:17.721Z,15.62
2016-08-22T00:09:17.724Z,15.68
2016-08-22T00:10:17.726Z,15.61
2016-08-22T00:11:17.725Z,15.72
2016-08-22T00:12:17.733Z,15.62
2016-08-22T00:13:17.726Z,15.62
2016-08-22T00:14:17.727Z,15.72
2016-08-22T00:15:17.724Z,15.73
2016-08-22T00:16:17.726Z,15.61
2016-08-22T00:17:17.726Z,15.58
2016-08-22T00:18:17.727Z,15.62
2016-08-22T00:19:17.749Z,15.73
2016-08-22T00:20:17.732Z,15.7
2016-08-22T00:21:17.730Z,15.61
2016-08-22T00:22:17.728Z,15.65
2016-08-22T00:23:17.731Z,15.59
2016-08-22T00:24:17.727Z,15.61
2016-08-22T00:25:17.731Z,15.62
2016-08-22T00:26:17.729Z,15.67
2016-08-22T00:27:17.730Z,15.62
2016-08-22T00:28:17.734Z,15.65
2016-08-22T00:29:17.735Z,15.73
2016-08-22T00:30:18.464Z,15.65
2016-08-22T00:31:17.736Z,15.65
2016-08-22T00:32:17.734Z,15.62
2016-08-22T00:33:17.770Z,15.59
2016-08-22T00:34:17.736Z,15.62
2016-08-22T00:35:17.738Z,15.65
2016-08-22T00:36:17.741Z,15.64
2016-08-22T00:37:17.737Z,15.61
2016-08-22T00:38:17.737Z,15.62
2016-08-22T00:39:17.737Z,15.54
2016-08-22T00:40:17.743Z,15.54
2016-08-22T00:41:17.737Z,15.55
2016-08-22T00:42:17.738Z,15.52
2016-08-22T00:43:17.740Z,15.42
2016-08-22T00:44:17.742Z,15.47
2016-08-22T00:45:17.774Z,15.4
2016-08-22T00:46:17.740Z,15.36
2016-08-22T00:47:17.743Z,15.24
2016-08-22T00:48:17.751Z,15.27
2016-08-22T00:49:17.743Z,15.25
2016-08-22T00:50:18.474Z,15.21
2016-08-22T00:51:17.745Z,15.21
2016-08-22T00:52:17.744Z,15.11
2016-08-22T00:53:17.749Z,15.19
2016-08-22T00:54:17.762Z,15.11
2016-08-22T00:55:17.745Z,15.18
2016-08-22T00:56:17.748Z,15.19
2016-08-22T00:57:17.745Z,15.11
2016-08-22T00:58:18.457Z,15.11
2016-08-22T00:59:17.895Z,15.07
2016-08-22T01:00:18.482Z,15.11
2016-08-22T01:01:17.745Z,15.03
2016-08-22T01:02:17.752Z,15.15
2016-08-22T01:03:17.748Z,15.06
2016-08-22T01:04:17.746Z,15.15
2016-08-22T01:05:17.748Z,15.18
2016-08-22T01:06:17.751Z,15.15
2016-08-22T01:07:17.747Z,15.1
2016-08-22T01:08:17.752Z,15.17
2016-08-22T01:09:17.761Z,15.02
2016-08-22T01:10:18.470Z,15.03
2016-08-22T01:11:17.754Z,15.11
2016-08-22T01:12:17.756Z,15.09
2016-08-22T01:13:17.757Z,15.11
2016-08-22T01:14:17.756Z,15.07
2016-08-22T01:15:18.483Z,15.1
2016-08-22T01:16:17.752Z,15
2016-08-22T01:17:17.759Z,15.09
2016-08-22T01:18:17.758Z,15.09
2016-08-22T01:19:17.767Z,14.99
2016-08-22T01:20:17.755Z,14.99
2016-08-22T01:21:17.753Z,15.02
2016-08-22T01:22:17.747Z,14.97
2016-08-22T01:23:17.761Z,14.94
2016-08-22T01:24:17.748Z,14.86
2016-08-22T01:25:18.507Z,14.89
2016-08-22T01:26:17.763Z,14.82
2016-08-22T01:27:17.747Z,14.78
2016-08-22T01:28:18.469Z,14.86
2016-08-22T01:29:17.750Z,14.73
2016-08-22T01:30:18.458Z,14.7
2016-08-22T01:31:17.762Z,14.7
2016-08-22T01:32:17.750Z,14.66
2016-08-22T01:33:17.755Z,14.78
2016-08-22T01:34:17.748Z,14.7
2016-08-22T01:35:18.487Z,14.7
2016-08-22T01:36:17.777Z,14.73
2016-08-22T01:37:17.759Z,14.72
2016-08-22T01:38:17.748Z,14.81
2016-08-22T01:39:17.750Z,14.73
2016-08-22T01:40:18.481Z,14.85
2016-08-22T01:41:17.766Z,14.85
2016-08-22T01:42:17.752Z,14.81
2016-08-22T01:43:17.750Z,14.77
2016-08-22T01:44:17.751Z,14.85
2016-08-22T01:45:17.751Z,14.77
2016-08-22T01:46:17.753Z,14.77
2016-08-22T01:47:17.758Z,14.85
2016-08-22T01:48:17.753Z,14.72
2016-08-22T01:49:17.752Z,14.81
2016-08-22T01:50:17.756Z,14.72
2016-08-22T01:51:17.753Z,14.77
2016-08-22T01:52:17.750Z,14.69
2016-08-22T01:53:17.753Z,14.7
2016-08-22T01:54:17.751Z,14.7
2016-08-22T01:55:18.466Z,14.79
2016-08-22T01:56:18.463Z,14.73
2016-08-22T01:57:17.752Z,14.68
2016-08-22T01:58:17.748Z,14.63
2016-08-22T01:59:18.102Z,14.68
2016-08-22T02:00:18.510Z,14.58
2016-08-22T02:01:17.750Z,14.66
2016-08-22T02:02:17.752Z,14.68
2016-08-22T02:03:17.752Z,14.59
2016-08-22T02:04:17.760Z,14.66
2016-08-22T02:05:17.752Z,14.59
2016-08-22T02:06:17.753Z,14.62
2016-08-22T02:07:17.753Z,14.55
2016-08-22T02:08:18.463Z,14.55
2016-08-22T02:09:17.752Z,14.65
2016-08-22T02:10:17.754Z,14.55
2016-08-22T02:11:17.754Z,14.63
2016-08-22T02:12:17.748Z,14.54
2016-08-22T02:13:17.752Z,14.6
2016-08-22T02:14:17.759Z,14.54
2016-08-22T02:15:17.750Z,14.59
2016-08-22T02:16:17.758Z,14.44
2016-08-22T02:17:17.752Z,14.51
2016-08-22T02:18:17.755Z,14.44
2016-08-22T02:19:17.755Z,14.36
2016-08-22T02:20:17.751Z,14.33
2016-08-22T02:21:17.760Z,14.3
2016-08-22T02:22:17.785Z,14.32
2016-08-22T02:23:17.752Z,14.28
2016-08-22T02:24:18.460Z,14.3
2016-08-22T02:25:17.753Z,14.29
2016-08-22T02:26:17.756Z,14.25
2016-08-22T02:27:17.752Z,14.23
2016-08-22T02:28:17.757Z,14.18
2016-08-22T02:29:17.752Z,14.17
2016-08-22T02:30:18.484Z,14.18
2016-08-22T02:31:17.754Z,14.14
2016-08-22T02:32:17.752Z,14.22
2016-08-22T02:33:17.757Z,14.22
2016-08-22T02:34:17.750Z,14.18
2016-08-22T02:35:17.753Z,14.1
2016-08-22T02:36:17.755Z,14.22
2016-08-22T02:37:17.765Z,14.11
2016-08-22T02:38:17.750Z,14.14
2016-08-22T02:39:17.755Z,14.11
2016-08-22T02:40:18.462Z,14.08
2016-08-22T02:41:17.755Z,14.08
2016-08-22T02:42:17.751Z,14.1
2016-08-22T02:43:17.762Z,14.1
2016-08-22T02:44:17.766Z,14.12
2016-08-22T02:45:18.481Z,14.17
2016-08-22T02:46:17.752Z,14.08
2016-08-22T02:47:17.759Z,14.14
2016-08-22T02:48:17.761Z,14.18
2016-08-22T02:49:17.759Z,14.2
2016-08-22T02:50:17.754Z,14.22
2016-08-22T02:51:17.753Z,14.2
2016-08-22T02:52:17.754Z,14.25
2016-08-22T02:53:17.759Z,14.18
2016-08-22T02:54:17.751Z,14.2
2016-08-22T02:55:18.499Z,14.35
2016-08-22T02:56:17.756Z,14.37
2016-08-22T02:57:17.754Z,14.4
2016-08-22T02:58:17.749Z,14.4
2016-08-22T02:59:17.813Z,14.43
2016-08-22T03:00:17.757Z,14.54
2016-08-22T03:01:17.749Z,14.5
2016-08-22T03:02:17.754Z,14.5
2016-08-22T03:03:17.750Z,14.53
2016-08-22T03:04:17.751Z,14.59
2016-08-22T03:05:18.494Z,14.62
2016-08-22T03:06:17.753Z,14.65
2016-08-22T03:07:17.748Z,14.65
2016-08-22T03:08:17.772Z,14.68
2016-08-22T03:09:17.757Z,14.78
2016-08-22T03:10:17.770Z,14.84
2016-08-22T03:11:17.760Z,14.91
2016-08-22T03:12:17.772Z,14.86
2016-08-22T03:13:17.755Z,14.92
2016-08-22T03:14:17.767Z,14.91
2016-08-22T03:15:18.483Z,14.92
2016-08-22T03:16:17.753Z,14.92
2016-08-22T03:17:17.764Z,15
2016-08-22T03:18:17.760Z,14.99
2016-08-22T03:19:17.767Z,15.09
2016-08-22T03:20:18.512Z,15.03
2016-08-22T03:21:17.759Z,15.06
2016-08-22T03:22:18.474Z,15.18
2016-08-22T03:23:17.760Z,15.14
2016-08-22T03:24:17.770Z,15.24
2016-08-22T03:25:17.766Z,15.21
2016-08-22T03:26:17.761Z,15.21
2016-08-22T03:27:17.762Z,15.24
2016-08-22T03:28:17.766Z,15.24
2016-08-22T03:29:17.765Z,15.29
2016-08-22T03:30:17.803Z,15.28
2016-08-22T03:31:17.763Z,15.37
2016-08-22T03:32:17.776Z,15.25
2016-08-22T03:33:17.778Z,15.36
2016-08-22T03:34:17.771Z,15.43
2016-08-22T03:35:17.773Z,15.33
2016-08-22T03:36:17.775Z,15.4
2016-08-22T03:37:17.769Z,15.39
2016-08-22T03:38:17.775Z,15.42
2016-08-22T03:39:17.775Z,15.39
2016-08-22T03:40:18.494Z,15.29
2016-08-22T03:41:17.776Z,15.33
2016-08-22T03:42:17.772Z,15.39
2016-08-22T03:43:17.776Z,15.39
2016-08-22T03:44:17.776Z,15.43
2016-08-22T03:45:17.777Z,15.49
2016-08-22T03:46:17.776Z,15.43
2016-08-22T03:47:17.780Z,15.4
2016-08-22T03:48:17.782Z,15.49
2016-08-22T03:49:17.777Z,15.58
2016-08-22T03:50:18.530Z,15.51
2016-08-22T03:51:18.491Z,15.54
2016-08-22T03:52:17.778Z,15.52
2016-08-22T03:53:17.779Z,15.55
2016-08-22T03:54:17.784Z,15.61
2016-08-22T03:55:17.781Z,15.68
2016-08-22T03:56:17.784Z,15.59
2016-08-22T03:57:17.785Z,15.64
2016-08-22T03:58:17.781Z,15.67
2016-08-22T03:59:18.087Z,15.65
2016-08-22T04:00:18.522Z,15.67
2016-08-22T04:01:17.783Z,15.55
2016-08-22T04:02:17.792Z,15.59
2016-08-22T04:03:17.782Z,15.61
2016-08-22T04:04:17.787Z,15.58
2016-08-22T04:05:17.787Z,15.59
2016-08-22T04:06:17.783Z,15.59
2016-08-22T04:07:17.804Z,15.64
2016-08-22T04:08:18.504Z,15.61
2016-08-22T04:09:17.786Z,15.59
2016-08-22T04:10:17.803Z,15.65
2016-08-22T04:11:17.790Z,15.64
2016-08-22T04:12:17.790Z,15.59
2016-08-22T04:13:17.795Z,15.57
2016-08-22T04:14:17.790Z,15.58
2016-08-22T04:15:18.533Z,15.62
2016-08-22T04:16:17.798Z,15.65
2016-08-22T04:17:17.795Z,15.64
2016-08-22T04:18:17.794Z,15.64
2016-08-22T04:19:17.794Z,15.64
2016-08-22T04:20:17.797Z,15.72
2016-08-22T04:21:18.504Z,15.64
2016-08-22T04:22:17.798Z,15.62
2016-08-22T04:23:18.509Z,15.64
2016-08-22T04:24:17.798Z,15.64
2016-08-22T04:25:17.804Z,15.68
2016-08-22T04:26:17.801Z,15.59
2016-08-22T04:27:17.798Z,15.65
2016-08-22T04:28:17.817Z,15.64
2016-08-22T04:29:17.799Z,15.64
2016-08-22T04:30:18.539Z,15.64
2016-08-22T04:31:17.803Z,15.65
2016-08-22T04:32:17.802Z,15.68
2016-08-22T04:33:17.799Z,15.64
2016-08-22T04:34:17.803Z,15.7
2016-08-22T04:35:18.548Z,15.65
2016-08-22T04:36:17.806Z,15.64
2016-08-22T04:37:17.811Z,15.58
2016-08-22T04:38:17.805Z,15.59
2016-08-22T04:39:17.807Z,15.62
2016-08-22T04:40:18.542Z,15.61
2016-08-22T04:41:17.823Z,15.62
2016-08-22T04:42:17.806Z,15.62
2016-08-22T04:43:17.816Z,15.58
2016-08-22T04:44:17.811Z,15.52
2016-08-22T04:45:18.547Z,15.54
2016-08-22T04:46:17.807Z,15.61
2016-08-22T04:47:17.814Z,15.54
2016-08-22T04:48:17.811Z,15.52
2016-08-22T04:49:17.817Z,15.52
2016-08-22T04:50:17.815Z,15.54
2016-08-22T04:51:17.811Z,15.52
2016-08-22T04:52:17.814Z,15.58
2016-08-22T04:53:17.813Z,15.55
2016-08-22T04:54:17.813Z,15.43
2016-08-22T04:55:18.690Z,15.46
2016-08-22T04:56:18.521Z,15.47
2016-08-22T04:57:17.815Z,15.46
2016-08-22T04:58:17.824Z,15.47
2016-08-22T04:59:17.924Z,15.47
2016-08-22T05:00:17.822Z,15.42
2016-08-22T05:01:17.817Z,15.39
2016-08-22T05:02:17.819Z,15.49
2016-08-22T05:03:17.837Z,15.46
2016-08-22T05:04:17.817Z,15.49
2016-08-22T05:05:18.531Z,15.55
2016-08-22T05:06:17.825Z,15.42
2016-08-22T05:07:17.827Z,15.46
2016-08-22T05:08:17.821Z,15.49
2016-08-22T05:09:17.824Z,15.47
2016-08-22T05:10:17.822Z,15.51
2016-08-22T05:11:17.830Z,15.51
2016-08-22T05:12:17.823Z,15.58
2016-08-22T05:13:17.824Z,15.51
2016-08-22T05:14:17.824Z,15.52
2016-08-22T05:15:17.825Z,15.59
2016-08-22T05:16:17.831Z,15.51
2016-08-22T05:17:17.825Z,15.49
2016-08-22T05:18:17.828Z,15.55
2016-08-22T05:19:17.833Z,15.58
2016-08-22T05:20:17.825Z,15.55
2016-08-22T05:21:17.826Z,15.51
2016-08-22T05:22:17.829Z,15.54
2016-08-22T05:23:17.829Z,15.47
2016-08-22T05:24:17.830Z,15.61
2016-08-22T05:25:18.553Z,15.54
2016-08-22T05:26:17.837Z,15.54
2016-08-22T05:27:17.831Z,15.57
2016-08-22T05:28:17.831Z,15.62
2016-08-22T05:29:17.829Z,15.7
2016-08-22T05:30:17.870Z,15.64
2016-08-22T05:31:17.832Z,15.75
2016-08-22T05:32:17.841Z,15.68
2016-08-22T05:33:17.837Z,15.83
2016-08-22T05:34:17.826Z,15.82
2016-08-22T05:35:17.832Z,15.82
2016-08-22T05:36:17.835Z,15.82
2016-08-22T05:37:17.830Z,15.8
2016-08-22T05:38:17.830Z,15.83
2016-08-22T05:39:17.829Z,15.8
2016-08-22T05:40:17.834Z,15.86
2016-08-22T05:41:17.831Z,15.92
2016-08-22T05:42:17.832Z,15.84
2016-08-22T05:43:18.558Z,15.86
2016-08-22T05:44:17.835Z,15.82
2016-08-22T05:45:18.588Z,15.77
2016-08-22T05:46:17.839Z,15.76
2016-08-22T05:47:17.838Z,15.79
2016-08-22T05:48:17.834Z,15.84
2016-08-22T05:49:17.838Z,15.97
2016-08-22T05:50:17.886Z,15.94
2016-08-22T05:51:17.837Z,15.95
2016-08-22T05:52:17.838Z,16.04
2016-08-22T05:53:17.853Z,16.09
2016-08-22T05:54:18.556Z,16.16
2016-08-22T05:55:17.844Z,16.23
2016-08-22T05:56:17.844Z,16.33
2016-08-22T05:57:17.846Z,16.31
2016-08-22T05:58:17.844Z,16.41
2016-08-22T05:59:18.161Z,16.54
2016-08-22T06:00:18.598Z,16.57
2016-08-22T06:01:17.846Z,16.66
2016-08-22T06:02:17.852Z,16.72
2016-08-22T06:03:17.853Z,16.78
2016-08-22T06:04:17.848Z,16.87
2016-08-22T06:05:18.599Z,16.72
2016-08-22T06:06:17.852Z,16.66
2016-08-22T06:07:17.853Z,16.74
2016-08-22T06:08:17.857Z,16.78
2016-08-22T06:09:17.863Z,16.75
2016-08-22T06:10:18.603Z,16.84
2016-08-22T06:11:17.865Z,16.93
2016-08-22T06:12:17.863Z,17.04
2016-08-22T06:13:17.863Z,17.15
2016-08-22T06:14:17.861Z,17.29
2016-08-22T06:15:18.618Z,17.44
2016-08-22T06:16:17.866Z,17.51
2016-08-22T06:17:17.874Z,17.7
2016-08-22T06:18:17.870Z,17.72
2016-08-22T06:19:17.875Z,17.9
2016-08-22T06:20:17.873Z,17.94
2016-08-22T06:21:17.875Z,18.05
2016-08-22T06:22:17.879Z,18.01
2016-08-22T06:23:17.879Z,18.13
2016-08-22T06:24:17.883Z,18.35
2016-08-22T06:25:17.940Z,18.63
2016-08-22T06:26:17.883Z,18.84
2016-08-22T06:27:17.896Z,19.04
2016-08-22T06:28:17.901Z,19.07
2016-08-22T06:29:18.653Z,19.22
2016-08-22T06:30:17.980Z,19.24
2016-08-22T06:31:17.914Z,19.31
2016-08-22T06:32:17.898Z,19.29
2016-08-22T06:33:17.917Z,19.39
2016-08-22T06:34:17.905Z,19.51
2016-08-22T06:35:18.670Z,19.79
2016-08-22T06:36:17.939Z,19.95
2016-08-22T06:37:17.930Z,19.96
2016-08-22T06:38:17.932Z,20.09
2016-08-22T06:39:17.919Z,20.48
2016-08-22T06:40:18.698Z,21.14
2016-08-22T06:41:17.925Z,21.73
2016-08-22T06:42:17.936Z,22.38
2016-08-22T06:43:17.939Z,23.08
2016-08-22T06:44:18.651Z,23.55
2016-08-22T06:45:17.993Z,23.81
2016-08-22T06:46:17.948Z,24.33
2016-08-22T06:47:17.955Z,24.77
2016-08-22T06:48:17.954Z,25.16
2016-08-22T06:49:17.983Z,25.25
2016-08-22T06:50:17.966Z,25.48
2016-08-22T06:51:17.970Z,25.47
2016-08-22T06:52:18.002Z,25.26
2016-08-22T06:53:17.992Z,24.86
2016-08-22T06:54:18.000Z,24.7
2016-08-22T06:55:18.000Z,24.6
2016-08-22T06:56:18.000Z,24.58
2016-08-22T06:57:18.002Z,24.54
2016-08-22T06:58:18.018Z,24.48
2016-08-22T06:59:18.168Z,24.53
2016-08-22T07:00:18.026Z,24.81
2016-08-22T07:01:18.033Z,24.84
2016-08-22T07:02:18.040Z,24.92
2016-08-22T07:03:18.046Z,24.84
2016-08-22T07:04:18.051Z,25.08
2016-08-22T07:05:18.081Z,25.17
2016-08-22T07:06:18.145Z,25.21
2016-08-22T07:07:18.146Z,25.29
2016-08-22T07:08:18.090Z,25.46
2016-08-22T07:09:18.085Z,25.68
2016-08-22T07:10:18.087Z,25.72
2016-08-22T07:11:18.116Z,25.72
2016-08-22T07:12:18.104Z,25.95
2016-08-22T07:13:18.103Z,26.07
2016-08-22T07:14:18.114Z,26.1
2016-08-22T07:15:18.126Z,26.19
2016-08-22T07:16:18.122Z,26.51
2016-08-22T07:17:18.135Z,26.58
2016-08-22T07:18:18.150Z,26.73
2016-08-22T07:19:18.157Z,26.92
2016-08-22T07:20:18.170Z,27.15
2016-08-22T07:21:18.169Z,27.08
2016-08-22T07:22:18.171Z,27
2016-08-22T07:23:18.173Z,26.92
2016-08-22T07:24:18.902Z,26.77
2016-08-22T07:25:18.185Z,26.9
2016-08-22T07:26:18.196Z,27
2016-08-22T07:27:18.208Z,26.97
2016-08-22T07:28:18.206Z,27.03
2016-08-22T07:29:18.212Z,26.97
2016-08-22T07:30:18.221Z,26.16
2016-08-22T07:31:18.234Z,25.63
2016-08-22T07:32:18.243Z,25.14
2016-08-22T07:33:18.247Z,24.65
2016-08-22T07:34:18.248Z,24.11
2016-08-22T07:35:18.255Z,23.59
2016-08-22T07:36:18.266Z,23.15
2016-08-22T07:37:18.269Z,22.84
2016-08-22T07:38:18.274Z,22.62
2016-08-22T07:39:18.282Z,22.53
2016-08-22T07:40:18.286Z,22.63
2016-08-22T07:41:18.288Z,22.68
2016-08-22T07:42:18.303Z,22.63
2016-08-22T07:43:18.344Z,22.8
2016-08-22T07:44:18.349Z,22.93
2016-08-22T07:45:18.311Z,23.13
2016-08-22T07:46:18.327Z,23.44
2016-08-22T07:47:18.330Z,23.47
2016-08-22T07:48:18.347Z,23.5
2016-08-22T07:49:18.343Z,23.37
2016-08-22T07:50:18.344Z,23.1
2016-08-22T07:51:18.342Z,23.06
2016-08-22T07:52:18.349Z,22.91
2016-08-22T07:53:18.355Z,22.99
2016-08-22T07:54:18.380Z,23.15
2016-08-22T07:55:18.359Z,23.23
2016-08-22T07:56:18.367Z,23.15
2016-08-22T07:57:18.370Z,23.2
2016-08-22T07:58:18.375Z,23.43
2016-08-22T07:59:18.483Z,23.51
2016-08-22T08:00:18.387Z,23.63
2016-08-22T08:01:18.389Z,23.51
2016-08-22T08:02:18.415Z,23.5
2016-08-22T08:03:18.412Z,23.2
2016-08-22T08:04:18.429Z,22.88
2016-08-22T08:05:18.413Z,22.8
2016-08-22T08:06:18.422Z,22.78
2016-08-22T08:07:18.423Z,22.84
2016-08-22T08:08:18.423Z,22.88
2016-08-22T08:09:18.431Z,23
2016-08-22T08:10:18.431Z,23
2016-08-22T08:11:18.437Z,23.18
2016-08-22T08:12:18.445Z,23.48
2016-08-22T08:13:18.456Z,23.74
2016-08-22T08:14:18.455Z,23.87
2016-08-22T08:15:19.165Z,24.42
2016-08-22T08:16:18.473Z,24.95
2016-08-22T08:17:18.470Z,25.11
2016-08-22T08:18:18.481Z,25.29
2016-08-22T08:19:18.485Z,25.41
2016-08-22T08:20:18.484Z,25.25
2016-08-22T08:21:18.491Z,25.08
2016-08-22T08:22:18.494Z,25.1
2016-08-22T08:23:18.511Z,25.06
2016-08-22T08:24:18.504Z,25.14
2016-08-22T08:25:18.516Z,25.11
2016-08-22T08:26:18.521Z,25.06
2016-08-22T08:27:18.522Z,25.29
2016-08-22T08:28:18.539Z,25.65
2016-08-22T08:29:18.542Z,25.63
2016-08-22T08:30:18.539Z,25.7
2016-08-22T08:31:18.542Z,25.83
2016-08-22T08:32:18.549Z,26.18
2016-08-22T08:33:19.259Z,26.44
2016-08-22T08:34:18.556Z,26.58
2016-08-22T08:35:18.564Z,26.7
2016-08-22T08:36:18.570Z,26.56
2016-08-22T08:37:18.582Z,26.45
2016-08-22T08:38:18.584Z,26.44
2016-08-22T08:39:18.590Z,26.43
2016-08-22T08:40:18.600Z,26.29
2016-08-22T08:41:18.604Z,26.05
2016-08-22T08:42:18.609Z,25.59
2016-08-22T08:43:18.613Z,25.32
2016-08-22T08:44:18.618Z,25.14
2016-08-22T08:45:18.637Z,24.89
2016-08-22T08:46:18.631Z,24.69
2016-08-22T08:47:18.639Z,24.3
2016-08-22T08:48:18.648Z,23.88
2016-08-22T08:49:18.649Z,23.66
2016-08-22T08:50:18.670Z,23.36
2016-08-22T08:51:18.666Z,23.36
2016-08-22T08:52:18.671Z,23.12
2016-08-22T08:53:19.388Z,22.94
2016-08-22T08:54:18.685Z,22.84
2016-08-22T08:55:18.689Z,22.83
2016-08-22T08:56:18.693Z,22.76
2016-08-22T08:57:18.697Z,22.72
2016-08-22T08:58:18.703Z,22.66
2016-08-22T08:59:18.811Z,22.78
2016-08-22T09:00:18.717Z,22.8
2016-08-22T09:01:18.721Z,22.91
2016-08-22T09:02:18.728Z,22.88
2016-08-22T09:03:18.740Z,22.94
2016-08-22T09:04:18.734Z,23.03
2016-08-22T09:05:18.742Z,23.2
2016-08-22T09:06:18.744Z,23.12
2016-08-22T09:07:18.749Z,23.06
2016-08-22T09:08:18.756Z,22.96
2016-08-22T09:09:18.760Z,22.81
2016-08-22T09:10:18.804Z,22.83
2016-08-22T09:11:18.779Z,22.65
2016-08-22T09:12:18.785Z,22.59
2016-08-22T09:13:18.798Z,22.48
2016-08-22T09:14:18.798Z,22.35
2016-08-22T09:15:18.796Z,22.22
2016-08-22T09:16:19.501Z,22.32
2016-08-22T09:17:18.800Z,22.43
2016-08-22T09:18:18.806Z,22.54
2016-08-22T09:19:18.811Z,22.44
2016-08-22T09:20:18.821Z,22.48
2016-08-22T09:21:18.819Z,22.5
2016-08-22T09:22:18.818Z,22.47
2016-08-22T09:23:18.828Z,22.54
2016-08-22T09:24:18.823Z,22.6
2016-08-22T09:25:19.547Z,22.65
2016-08-22T09:26:18.862Z,22.65
2016-08-22T09:27:18.847Z,22.6
2016-08-22T09:28:19.544Z,22.76
2016-08-22T09:29:18.863Z,22.94
2016-08-22T09:30:18.883Z,23.09
2016-08-22T09:31:18.864Z,23.21
2016-08-22T09:32:18.867Z,23.23
2016-08-22T09:33:18.883Z,23.28
2016-08-22T09:34:18.865Z,23.28
2016-08-22T09:35:18.884Z,23.24
2016-08-22T09:36:18.893Z,23.34
2016-08-22T09:37:18.887Z,23.21
2016-08-22T09:38:18.890Z,23.1
2016-08-22T09:39:18.907Z,23.03
2016-08-22T09:40:18.914Z,23.02
2016-08-22T09:41:18.910Z,23.06
2016-08-22T09:42:18.914Z,23.12
2016-08-22T09:43:18.913Z,23.18
2016-08-22T09:44:19.614Z,23.36
2016-08-22T09:45:18.934Z,23.41
2016-08-22T09:46:18.949Z,23.48
2016-08-22T09:47:18.926Z,23.54
2016-08-22T09:48:19.640Z,23.63
2016-08-22T09:49:18.958Z,23.71
2016-08-22T09:50:18.945Z,23.73
2016-08-22T09:51:18.983Z,23.65
2016-08-22T09:52:18.976Z,23.56
2016-08-22T09:53:18.956Z,23.47
2016-08-22T09:54:18.961Z,23.47
2016-08-22T09:55:18.985Z,23.46
2016-08-22T09:56:18.967Z,23.63
2016-08-22T09:57:18.974Z,23.69
2016-08-22T09:58:18.984Z,23.71
2016-08-22T09:59:19.056Z,23.76
2016-08-22T10:00:18.989Z,23.73
2016-08-22T10:01:18.988Z,23.76
2016-08-22T10:02:18.989Z,23.68
2016-08-22T10:03:19.007Z,23.73
2016-08-22T10:04:19.009Z,23.92
2016-08-22T10:05:19.059Z,23.95
2016-08-22T10:06:19.711Z,23.98
2016-08-22T10:07:19.031Z,23.88
2016-08-22T10:08:19.030Z,23.77
2016-08-22T10:09:19.039Z,23.69
2016-08-22T10:10:19.770Z,23.69
2016-08-22T10:11:19.044Z,23.71
2016-08-22T10:12:19.032Z,23.78
2016-08-22T10:13:19.066Z,23.86
2016-08-22T10:14:19.080Z,23.87
2016-08-22T10:15:19.059Z,23.91
2016-08-22T10:16:19.066Z,23.96
2016-08-22T10:17:19.078Z,23.95
2016-08-22T10:18:19.056Z,23.95
2016-08-22T10:19:19.083Z,23.92
2016-08-22T10:20:19.120Z,23.93
2016-08-22T10:21:19.085Z,23.88
2016-08-22T10:22:19.080Z,23.8
2016-08-22T10:23:19.095Z,23.73
2016-08-22T10:24:19.091Z,23.65
2016-08-22T10:25:19.102Z,23.66
2016-08-22T10:26:19.122Z,23.68
2016-08-22T10:27:19.111Z,23.74
2016-08-22T10:28:19.112Z,23.76
2016-08-22T10:29:19.120Z,23.77
2016-08-22T10:30:19.127Z,23.87
2016-08-22T10:31:19.120Z,23.93
2016-08-22T10:32:19.139Z,23.93
2016-08-22T10:33:19.135Z,23.95
2016-08-22T10:34:19.131Z,23.93
2016-08-22T10:35:19.854Z,23.93
2016-08-22T10:36:19.155Z,23.96
2016-08-22T10:37:19.156Z,23.91
2016-08-22T10:38:19.151Z,23.96
2016-08-22T10:39:19.169Z,23.95
2016-08-22T10:40:19.171Z,23.98
2016-08-22T10:41:19.171Z,23.93
2016-08-22T10:42:19.174Z,23.91
2016-08-22T10:43:19.181Z,23.84
2016-08-22T10:44:19.198Z,23.88
2016-08-22T10:45:19.177Z,23.83
2016-08-22T10:46:19.187Z,23.91
2016-08-22T10:47:19.200Z,23.86
2016-08-22T10:48:19.203Z,23.92
2016-08-22T10:49:19.198Z,23.99
2016-08-22T10:50:19.202Z,24.1
2016-08-22T10:51:19.206Z,24.28
2016-08-22T10:52:19.216Z,24.32
2016-08-22T10:53:19.217Z,24.36
2016-08-22T10:54:19.219Z,24.57
2016-08-22T10:55:19.226Z,24.69
2016-08-22T10:56:19.232Z,24.69
2016-08-22T10:57:19.234Z,24.57
2016-08-22T10:58:19.238Z,24.48
2016-08-22T10:59:19.547Z,24.3
2016-08-22T11:00:19.247Z,24.24
2016-08-22T11:01:19.267Z,24.11
2016-08-22T11:02:19.988Z,24.01
2016-08-22T11:03:19.269Z,23.99
2016-08-22T11:04:19.273Z,23.99
2016-08-22T11:05:19.272Z,24.06
2016-08-22T11:06:19.275Z,24.2
2016-08-22T11:07:19.282Z,24.24
2016-08-22T11:08:19.293Z,24.3
2016-08-22T11:09:19.291Z,24.24
2016-08-22T11:10:19.300Z,24.29
2016-08-22T11:11:19.301Z,24.26
2016-08-22T11:12:19.306Z,24.17
2016-08-22T11:13:19.316Z,24.17
2016-08-22T11:14:19.313Z,24.3
2016-08-22T11:15:19.317Z,24.2
2016-08-22T11:16:19.327Z,24.02
2016-08-22T11:17:19.336Z,23.78
2016-08-22T11:18:19.333Z,23.78
2016-08-22T11:19:19.337Z,23.78
2016-08-22T11:20:19.351Z,23.55
2016-08-22T11:21:20.052Z,23.68
2016-08-22T11:22:19.355Z,23.62
2016-08-22T11:23:19.358Z,23.58
2016-08-22T11:24:19.358Z,23.59
2016-08-22T11:25:19.363Z,23.78
2016-08-22T11:26:19.370Z,23.95
2016-08-22T11:27:20.079Z,23.96
2016-08-22T11:28:19.377Z,23.96
2016-08-22T11:29:19.384Z,24.02
2016-08-22T11:30:19.386Z,24.02
2016-08-22T11:31:19.389Z,24.14
2016-08-22T11:32:19.402Z,24.21
2016-08-22T11:33:19.401Z,24.18
2016-08-22T11:34:19.405Z,24.2
2016-08-22T11:35:19.407Z,24.08
2016-08-22T11:36:19.418Z,23.99
2016-08-22T11:37:19.429Z,23.99
2016-08-22T11:38:19.429Z,24.01
2016-08-22T11:39:19.437Z,24.13
2016-08-22T11:40:19.433Z,24.13
2016-08-22T11:41:19.440Z,24.29
2016-08-22T11:42:19.446Z,24.35
2016-08-22T11:43:19.458Z,24.2
2016-08-22T11:44:19.443Z,23.92
2016-08-22T11:45:20.189Z,23.78
2016-08-22T11:46:19.464Z,23.51
2016-08-22T11:47:19.459Z,23.36
2016-08-22T11:48:19.464Z,23.46
2016-08-22T11:49:19.474Z,23.4
2016-08-22T11:50:19.472Z,23.43
2016-08-22T11:51:19.498Z,23.34
2016-08-22T11:52:19.501Z,23.27
2016-08-22T11:53:19.495Z,23.37
2016-08-22T11:54:19.500Z,23.44
2016-08-22T11:55:19.505Z,23.47
2016-08-22T11:56:19.504Z,23.43
2016-08-22T11:57:19.506Z,23.54
2016-08-22T11:58:19.517Z,23.69
2016-08-22T11:59:19.672Z,23.68
2016-08-22T12:00:19.538Z,23.8
2016-08-22T12:01:19.524Z,23.91
2016-08-22T12:02:19.524Z,24.08
2016-08-22T12:03:19.530Z,24.18
2016-08-22T12:04:20.244Z,24.26
2016-08-22T12:05:20.253Z,24.17
2016-08-22T12:06:20.256Z,24.2
2016-08-22T12:07:19.547Z,24.1
2016-08-22T12:08:20.271Z,24.01
2016-08-22T12:09:19.561Z,23.87
2016-08-22T12:10:19.584Z,23.76
2016-08-22T12:11:19.582Z,23.77
2016-08-22T12:12:19.599Z,23.68
2016-08-22T12:13:19.593Z,23.71
2016-08-22T12:14:19.586Z,23.63
2016-08-22T12:15:19.592Z,23.73
2016-08-22T12:16:20.309Z,23.66
2016-08-22T12:17:19.593Z,23.69
2016-08-22T12:18:19.607Z,23.78
2016-08-22T12:19:19.604Z,23.65
2016-08-22T12:20:19.607Z,23.71
2016-08-22T12:21:19.618Z,23.78
2016-08-22T12:22:19.619Z,23.88
2016-08-22T12:23:19.627Z,23.93
2016-08-22T12:24:19.621Z,24.03
2016-08-22T12:25:19.626Z,24.05
2016-08-22T12:26:19.633Z,23.93
2016-08-22T12:27:19.631Z,23.98
2016-08-22T12:28:19.639Z,23.88
2016-08-22T12:29:19.650Z,23.84
2016-08-22T12:30:19.653Z,23.86
2016-08-22T12:31:19.661Z,23.95
2016-08-22T12:32:19.658Z,23.87
2016-08-22T12:33:19.681Z,23.93
2016-08-22T12:34:20.371Z,24.02
2016-08-22T12:35:19.671Z,24.17
2016-08-22T12:36:19.699Z,24.17
2016-08-22T12:37:19.676Z,24.16
2016-08-22T12:38:19.683Z,24.03
2016-08-22T12:39:20.401Z,23.96
2016-08-22T12:40:19.698Z,23.83
2016-08-22T12:41:19.696Z,23.81
2016-08-22T12:42:19.702Z,23.73
2016-08-22T12:43:19.707Z,23.78
2016-08-22T12:44:19.712Z,23.81
2016-08-22T12:45:19.720Z,23.86
2016-08-22T12:46:19.719Z,23.92
2016-08-22T12:47:19.722Z,24.11
2016-08-22T12:48:19.723Z,24.3
2016-08-22T12:49:19.734Z,24.48
2016-08-22T12:50:19.745Z,24.73
2016-08-22T12:51:19.745Z,24.88
2016-08-22T12:52:20.455Z,25.01
2016-08-22T12:53:19.747Z,24.99
2016-08-22T12:54:19.755Z,24.95
2016-08-22T12:55:19.760Z,25.08